Time,TemperatureF,DewpointF,PressureIn,WindDirection,WindDirectionDegrees,WindSpeedMPH,WindSpeedGustMPH,Humidity,HourlyPrecipIn,Conditions,Clouds,dailyrainin,SoftwareType,DateUTC
2013-04-24 00:01:00,41.0,38.0,30.05,NE,39,6.0,9.0,88,0.00,,,0.00,,2013-04-24 04:01:00,
2013-04-24 00:03:00,41.0,38.0,30.03,NNE,29,5.0,10.0,88,0.00,,,0.00,,2013-04-24 04:03:00,
2013-04-24 00:12:00,41.0,38.0,30.03,NNE,29,5.0,10.0,88,0.00,,,0.00,,2013-04-24 04:12:00,
2013-04-24 00:23:00,41.0,38.0,30.02,NE,45,6.0,10.0,88,0.00,,,0.00,,2013-04-24 04:23:00,
2013-04-24 00:33:00,41.0,38.0,30.02,NE,45,5.0,12.0,88,0.00,,,0.00,,2013-04-24 04:33:00,
2013-04-24 00:43:00,41.0,38.0,30.02,NE,45,5.0,12.0,88,0.00,,,0.00,,2013-04-24 04:43:00,
2013-04-24 00:53:00,41.0,37.0,30.00,NE,45,6.0,10.0,87,0.00,,,0.00,,2013-04-24 04:53:00,
2013-04-24 01:02:00,41.0,37.0,30.00,NE,45,5.0,8.0,87,0.00,,,0.00,,2013-04-24 05:02:00,
2013-04-24 01:12:00,41.0,37.0,30.00,NE,45,5.0,8.0,87,0.00,,,0.00,,2013-04-24 05:12:00,
2013-04-24 01:22:00,41.0,37.0,30.00,NE,38,6.0,7.0,86,0.00,,,0.00,,2013-04-24 05:22:00,
2013-04-24 01:32:00,41.0,37.0,29.99,NE,45,8.0,9.0,86,0.00,,,0.00,,2013-04-24 05:32:00,
2013-04-24 01:42:00,41.0,37.0,29.99,NE,45,8.0,9.0,86,0.00,,,0.00,,2013-04-24 05:42:00,
2013-04-24 01:52:00,41.0,37.0,29.98,NE,40,6.0,9.0,86,0.00,,,0.00,,2013-04-24 05:52:00,
2013-04-24 02:02:00,41.0,37.0,29.98,NE,39,7.0,10.0,86,0.00,,,0.00,,2013-04-24 06:02:00,
2013-04-24 02:12:00,41.0,37.0,29.98,NE,39,7.0,10.0,86,0.00,,,0.00,,2013-04-24 06:12:00,
2013-04-24 02:22:00,41.0,37.0,29.96,NE,45,7.0,9.0,86,0.00,,,0.00,,2013-04-24 06:22:00,
2013-04-24 02:33:00,41.0,37.0,29.97,NE,45,5.0,7.0,86,0.00,,,0.00,,2013-04-24 06:33:00,
2013-04-24 02:42:00,41.0,37.0,29.97,NE,45,5.0,7.0,86,0.00,,,0.00,,2013-04-24 06:42:00,
2013-04-24 02:52:00,41.0,37.0,29.96,NE,35,4.0,10.0,86,0.00,,,0.00,,2013-04-24 06:52:00,
2013-04-24 03:02:00,41.0,37.0,29.96,NNE,23,7.0,8.0,86,0.00,,,0.00,,2013-04-24 07:02:00,
2013-04-24 03:11:00,41.0,37.0,29.96,NNE,23,7.0,8.0,86,0.00,,,0.00,,2013-04-24 07:11:00,
2013-04-24 03:22:00,41.0,37.0,29.96,NNE,33,5.0,8.0,86,0.00,,,0.00,,2013-04-24 07:22:00,
2013-04-24 03:32:00,41.0,37.0,29.96,NE,45,7.0,7.0,87,0.00,,,0.00,,2013-04-24 07:32:00,
2013-04-24 03:42:00,41.0,37.0,29.96,NE,45,7.0,7.0,87,0.00,,,0.00,,2013-04-24 07:42:00,
2013-04-24 03:52:00,41.0,37.0,29.95,NE,45,4.0,8.0,87,0.00,,,0.00,,2013-04-24 07:52:00,
2013-04-24 04:02:00,41.0,37.0,29.95,NE,45,3.0,10.0,87,0.00,,,0.00,,2013-04-24 08:02:00,
2013-04-24 04:12:00,41.0,37.0,29.95,NE,45,3.0,10.0,87,0.00,,,0.00,,2013-04-24 08:12:00,
2013-04-24 04:21:00,41.0,37.0,29.94,NNE,29,6.0,10.0,87,0.00,,,0.00,,2013-04-24 08:21:00,
2013-04-24 04:33:00,41.0,37.0,29.94,NE,34,7.0,9.0,87,0.00,,,0.00,,2013-04-24 08:33:00,
2013-04-24 04:42:00,41.0,37.0,29.94,NE,34,7.0,9.0,87,0.00,,,0.00,,2013-04-24 08:42:00,
2013-04-24 04:52:00,41.0,37.0,29.93,NE,39,6.0,9.0,87,0.00,,,0.00,,2013-04-24 08:52:00,
2013-04-24 05:02:00,41.0,38.0,29.93,NE,50,6.0,9.0,88,0.00,,,0.00,,2013-04-24 09:02:00,
2013-04-24 05:11:00,41.0,38.0,29.93,NE,50,6.0,9.0,88,0.00,,,0.00,,2013-04-24 09:11:00,
2013-04-24 05:21:00,41.0,37.0,29.94,NE,45,6.0,9.0,87,0.00,,,0.00,,2013-04-24 09:21:00,
2013-04-24 05:33:00,42.0,38.0,29.95,NE,45,5.0,10.0,87,0.00,,,0.00,,2013-04-24 09:33:00,
2013-04-24 05:42:00,42.0,38.0,29.95,NE,45,5.0,10.0,87,0.00,,,0.00,,2013-04-24 09:42:00,
2013-04-24 05:53:00,42.0,38.0,29.95,NNE,29,7.0,9.0,87,0.00,,,0.00,,2013-04-24 09:53:00,
2013-04-24 06:02:00,42.0,38.0,29.95,NE,46,3.0,8.0,87,0.00,,,0.00,,2013-04-24 10:02:00,
2013-04-24 06:12:00,42.0,38.0,29.95,NE,46,3.0,8.0,87,0.00,,,0.00,,2013-04-24 10:12:00,
2013-04-24 06:22:00,42.0,38.0,29.95,NNE,33,6.0,9.0,87,0.00,,,0.00,,2013-04-24 10:22:00,
2013-04-24 06:32:00,42.0,38.0,29.95,NE,45,4.0,6.0,87,0.00,,,0.00,,2013-04-24 10:32:00,
2013-04-24 06:42:00,42.0,38.0,29.95,NE,45,4.0,6.0,87,0.00,,,0.00,,2013-04-24 10:42:00,
2013-04-24 06:53:00,42.0,38.0,29.94,NNE,26,5.0,7.0,86,0.00,,,0.00,,2013-04-24 10:53:00,
2013-04-24 07:02:00,42.0,38.0,29.95,NNE,29,2.0,7.0,86,0.00,,,0.00,,2013-04-24 11:02:00,
2013-04-24 07:11:00,42.0,38.0,29.95,NNE,29,2.0,7.0,86,0.00,,,0.00,,2013-04-24 11:11:00,
2013-04-24 07:21:00,43.0,39.0,29.95,NE,36,4.0,6.0,86,0.00,,,0.00,,2013-04-24 11:21:00,
2013-04-24 07:32:00,43.0,39.0,29.96,NE,45,2.0,8.0,86,0.00,,,0.00,,2013-04-24 11:32:00,
2013-04-24 07:42:00,43.0,39.0,29.96,NE,45,2.0,8.0,86,0.00,,,0.00,,2013-04-24 11:42:00,
2013-04-24 07:52:00,43.0,39.0,29.97,NNW,338,0.0,5.0,86,0.00,,,0.00,,2013-04-24 11:52:00,
2013-04-24 08:02:00,43.0,39.0,29.97,NE,45,0.0,5.0,85,0.00,,,0.00,,2013-04-24 12:02:00,
2013-04-24 08:11:00,43.0,39.0,29.97,NE,45,0.0,5.0,85,0.00,,,0.00,,2013-04-24 12:11:00,
2013-04-24 08:22:00,44.0,40.0,29.98,WNW,293,0.0,3.0,85,0.00,,,0.00,,2013-04-24 12:22:00,
2013-04-24 08:32:00,44.0,39.0,29.98,North,0,5.0,7.0,84,0.00,,,0.00,,2013-04-24 12:32:00,
2013-04-24 08:42:00,44.0,39.0,29.98,North,0,5.0,7.0,84,0.00,,,0.00,,2013-04-24 12:42:00,
2013-04-24 08:52:00,46.0,41.0,29.98,NNE,21,3.0,4.0,83,0.00,,,0.00,,2013-04-24 12:52:00,
2013-04-24 09:01:00,46.0,41.0,29.98,NE,45,0.0,4.0,81,0.00,,,0.00,,2013-04-24 13:01:00,
2013-04-24 09:12:00,46.0,41.0,29.98,NE,45,0.0,4.0,81,0.00,,,0.00,,2013-04-24 13:12:00,
2013-04-24 09:22:00,47.0,41.0,29.97,NNW,338,0.0,6.0,80,0.00,,,0.00,,2013-04-24 13:22:00,
2013-04-24 09:32:00,48.0,42.0,29.97,NNW,338,0.0,6.0,79,0.00,,,0.00,,2013-04-24 13:32:00,
2013-04-24 09:41:00,48.0,42.0,29.97,NNW,338,0.0,6.0,79,0.00,,,0.00,,2013-04-24 13:41:00,
2013-04-24 09:52:00,50.0,43.0,29.96,NE,45,2.0,4.0,77,0.00,,,0.00,,2013-04-24 13:52:00,
2013-04-24 10:01:00,51.0,44.0,29.96,NNE,23,0.0,0.0,76,0.00,,,0.00,,2013-04-24 14:01:00,
2013-04-24 10:11:00,51.0,44.0,29.96,NNE,23,0.0,0.0,76,0.00,,,0.00,,2013-04-24 14:11:00,
2013-04-24 10:21:00,51.0,43.0,29.95,West,270,0.0,5.0,74,0.00,,,0.00,,2013-04-24 14:21:00,
2013-04-24 10:32:00,52.0,44.0,29.94,NW,315,0.0,0.0,73,0.00,,,0.00,,2013-04-24 14:32:00,
2013-04-24 10:41:00,52.0,44.0,29.94,NW,315,0.0,0.0,73,0.00,,,0.00,,2013-04-24 14:41:00,
2013-04-24 10:52:00,54.0,45.0,29.94,NNE,23,0.0,6.0,71,0.00,,,0.00,,2013-04-24 14:52:00,
2013-04-24 11:01:00,55.0,45.0,29.94,WNW,293,3.0,3.0,70,0.00,,,0.00,,2013-04-24 15:01:00,
2013-04-24 11:11:00,55.0,45.0,29.94,WNW,293,3.0,3.0,70,0.00,,,0.00,,2013-04-24 15:11:00,
2013-04-24 11:22:00,57.0,46.0,29.93,West,270,6.0,6.0,67,0.00,,,0.00,,2013-04-24 15:22:00,
2013-04-24 11:33:00,58.0,46.0,29.94,West,270,2.0,2.0,65,0.00,,,0.00,,2013-04-24 15:33:00,
2013-04-24 11:43:00,58.0,46.0,29.94,West,270,2.0,2.0,65,0.00,,,0.00,,2013-04-24 15:43:00,
2013-04-24 11:53:00,60.0,47.0,29.94,WNW,293,0.0,4.0,62,0.00,,,0.00,,2013-04-24 15:53:00,
2013-04-24 12:03:00,61.0,47.0,29.93,NW,315,0.0,7.0,61,0.00,,,0.00,,2013-04-24 16:03:00,
2013-04-24 12:12:00,61.0,47.0,29.93,NW,315,0.0,7.0,61,0.00,,,0.00,,2013-04-24 16:12:00,
2013-04-24 12:23:00,64.0,48.0,29.93,NE,45,0.0,6.0,57,0.00,,,0.00,,2013-04-24 16:23:00,
2013-04-24 12:32:00,65.0,48.0,29.92,WSW,248,0.0,0.0,54,0.00,,,0.00,,2013-04-24 16:32:00,
2013-04-24 12:42:00,74.0,51.0,29.90,WNW,293,1.0,1.0,45,0.00,,,0.00,,2013-04-24 16:42:00,
2013-04-24 12:53:00,74.0,51.0,29.90,WNW,293,1.0,1.0,45,0.00,,,0.00,,2013-04-24 16:53:00,
2013-04-24 13:02:00,79.0,53.0,29.90,North,0,0.0,2.0,40,0.00,,,0.00,,2013-04-24 17:02:00,
2013-04-24 13:12:00,79.0,53.0,29.90,North,0,0.0,2.0,40,0.00,,,0.00,,2013-04-24 17:12:00,
2013-04-24 13:22:00,84.0,53.0,29.88,WSW,256,4.0,6.0,34,0.00,,,0.00,,2013-04-24 17:22:00,
2013-04-24 13:32:00,87.0,54.0,29.88,WSW,248,0.0,6.0,32,0.00,,,0.00,,2013-04-24 17:32:00,
2013-04-24 13:42:00,87.0,54.0,29.88,WSW,248,0.0,6.0,32,0.00,,,0.00,,2013-04-24 17:42:00,
2013-04-24 13:52:00,92.0,54.0,29.87,WSW,248,1.0,4.0,28,0.00,,,0.00,,2013-04-24 17:52:00,
2013-04-24 14:02:00,93.0,54.0,29.88,WSW,248,0.0,3.0,27,0.00,,,0.00,,2013-04-24 18:02:00,
2013-04-24 14:12:00,93.0,54.0,29.88,WSW,248,0.0,3.0,27,0.00,,,0.00,,2013-04-24 18:12:00,
2013-04-24 14:22:00,94.0,53.0,29.86,WSW,248,0.0,5.0,25,0.00,,,0.00,,2013-04-24 18:22:00,
2013-04-24 14:33:00,97.0,51.0,29.86,WSW,248,0.0,0.0,21,0.00,,,0.00,,2013-04-24 18:33:00,
2013-04-24 14:42:00,97.0,51.0,29.86,WSW,248,0.0,0.0,21,0.00,,,0.00,,2013-04-24 18:42:00,
2013-04-24 14:52:00,98.0,53.0,29.85,WSW,248,0.0,0.0,22,0.00,,,0.00,,2013-04-24 18:52:00,
2013-04-24 15:02:00,100.0,52.0,29.85,WSW,248,0.0,4.0,20,0.00,,,0.00,,2013-04-24 19:02:00,
2013-04-24 15:11:00,100.0,52.0,29.85,WSW,248,0.0,4.0,20,0.00,,,0.00,,2013-04-24 19:11:00,
2013-04-24 15:22:00,96.0,52.0,29.84,WSW,248,3.0,6.0,23,0.00,,,0.00,,2013-04-24 19:22:00,
2013-04-24 15:32:00,90.0,50.0,29.84,WSW,248,5.0,6.0,26,0.00,,,0.00,,2013-04-24 19:32:00,
2013-04-24 15:42:00,90.0,50.0,29.84,WSW,248,5.0,6.0,26,0.00,,,0.00,,2013-04-24 19:42:00,
2013-04-24 15:52:00,87.0,49.0,29.84,WSW,248,2.0,6.0,27,0.00,,,0.00,,2013-04-24 19:52:00,
2013-04-24 16:02:00,84.0,48.0,29.85,WSW,248,2.0,8.0,29,0.00,,,0.00,,2013-04-24 20:02:00,
2013-04-24 16:11:00,84.0,48.0,29.85,WSW,248,2.0,8.0,29,0.00,,,0.00,,2013-04-24 20:11:00,
2013-04-24 16:22:00,76.0,46.0,29.84,WSW,248,0.0,7.0,34,0.00,,,0.00,,2013-04-24 20:22:00,
2013-04-24 16:32:00,74.0,45.0,29.84,WSW,248,0.0,8.0,35,0.00,,,0.00,,2013-04-24 20:32:00,
2013-04-24 16:42:00,74.0,45.0,29.84,WSW,248,0.0,8.0,35,0.00,,,0.00,,2013-04-24 20:42:00,
2013-04-24 16:52:00,72.0,44.0,29.85,West,270,6.0,6.0,37,0.00,,,0.00,,2013-04-24 20:52:00,
2013-04-24 17:02:00,73.0,46.0,29.85,SSE,158,1.0,1.0,38,0.00,,,0.00,,2013-04-24 21:02:00,
2013-04-24 17:11:00,73.0,46.0,29.85,SSE,158,1.0,1.0,38,0.00,,,0.00,,2013-04-24 21:11:00,
2013-04-24 17:22:00,71.0,46.0,29.84,WSW,248,3.0,7.0,41,0.00,,,0.00,,2013-04-24 21:22:00,
2013-04-24 17:33:00,71.0,47.0,29.84,WSW,248,0.0,5.0,42,0.00,,,0.00,,2013-04-24 21:33:00,
2013-04-24 17:42:00,71.0,47.0,29.84,WSW,248,0.0,5.0,42,0.00,,,0.00,,2013-04-24 21:42:00,
2013-04-24 17:53:00,71.0,47.0,29.84,WSW,248,5.0,10.0,42,0.00,,,0.00,,2013-04-24 21:53:00,
2013-04-24 18:03:00,70.0,46.0,29.85,WSW,248,4.0,5.0,43,0.00,,,0.00,,2013-04-24 22:03:00,
2013-04-24 18:12:00,70.0,46.0,29.85,WSW,248,4.0,5.0,43,0.00,,,0.00,,2013-04-24 22:12:00,
2013-04-24 18:22:00,66.0,45.0,29.85,WSW,248,0.0,5.0,47,0.00,,,0.00,,2013-04-24 22:22:00,
2013-04-24 18:33:00,65.0,45.0,29.86,WSW,248,7.0,9.0,48,0.00,,,0.00,,2013-04-24 22:33:00,
2013-04-24 18:42:00,65.0,45.0,29.86,WSW,248,7.0,9.0,48,0.00,,,0.00,,2013-04-24 22:42:00,
2013-04-24 18:52:00,62.0,44.0,29.86,SSE,160,3.0,7.0,52,0.00,,,0.00,,2013-04-24 22:52:00,
2013-04-24 19:02:00,60.0,44.0,29.85,SE,143,4.0,7.0,55,0.00,,,0.00,,2013-04-24 23:02:00,
2013-04-24 19:12:00,60.0,44.0,29.85,SE,143,4.0,7.0,55,0.00,,,0.00,,2013-04-24 23:12:00,
2013-04-24 19:21:00,57.0,43.0,29.86,SE,135,0.0,3.0,60,0.00,,,0.00,,2013-04-24 23:21:00,
2013-04-24 19:32:00,56.0,43.0,29.86,SE,135,0.0,7.0,61,0.00,,,0.00,,2013-04-24 23:32:00,
2013-04-24 19:42:00,56.0,43.0,29.86,SE,135,0.0,7.0,61,0.00,,,0.00,,2013-04-24 23:42:00,
2013-04-24 19:52:00,55.0,43.0,29.85,SE,135,4.0,7.0,65,0.00,,,0.00,,2013-04-24 23:52:00,
2013-04-24 20:02:00,54.0,43.0,29.85,South,180,0.0,6.0,65,0.00,,,0.00,,2013-04-25 00:02:00,
2013-04-24 20:12:00,54.0,43.0,29.85,South,180,0.0,6.0,65,0.00,,,0.00,,2013-04-25 00:12:00,
2013-04-24 20:22:00,52.0,43.0,29.86,SSE,147,8.0,9.0,70,0.00,,,0.00,,2013-04-25 00:22:00,
2013-04-24 20:32:00,52.0,43.0,29.86,SSE,158,0.0,7.0,70,0.00,,,0.00,,2013-04-25 00:32:00,
2013-04-24 20:42:00,52.0,43.0,29.86,SSE,158,0.0,7.0,70,0.00,,,0.00,,2013-04-25 00:42:00,
2013-04-24 20:52:00,51.0,43.0,29.87,WSW,248,0.0,4.0,74,0.00,,,0.00,,2013-04-25 00:52:00,
2013-04-24 21:01:00,50.0,42.0,29.88,SSW,203,0.0,0.0,75,0.00,,,0.00,,2013-04-25 01:01:00,
2013-04-24 21:11:00,50.0,42.0,29.88,SSW,203,0.0,0.0,75,0.00,,,0.00,,2013-04-25 01:11:00,
2013-04-24 21:23:00,49.0,43.0,29.89,WSW,248,2.0,5.0,80,0.00,,,0.00,,2013-04-25 01:23:00,
2013-04-24 21:32:00,49.0,43.0,29.90,SSW,203,0.0,2.0,81,0.00,,,0.00,,2013-04-25 01:32:00,
2013-04-24 21:42:00,49.0,43.0,29.90,SSW,203,0.0,2.0,81,0.00,,,0.00,,2013-04-25 01:42:00,
2013-04-24 21:52:00,49.0,44.0,29.91,West,270,3.0,3.0,83,0.00,,,0.00,,2013-04-25 01:52:00,
2013-04-24 22:02:00,49.0,44.0,29.91,SW,229,4.0,6.0,83,0.00,,,0.00,,2013-04-25 02:02:00,
2013-04-24 22:11:00,49.0,44.0,29.91,SW,229,4.0,6.0,83,0.00,,,0.00,,2013-04-25 02:11:00,
2013-04-24 22:22:00,49.0,44.0,29.90,SSE,158,6.0,6.0,84,0.00,,,0.00,,2013-04-25 02:22:00,
2013-04-24 22:32:00,48.0,43.0,29.89,West,270,3.0,4.0,84,0.00,,,0.00,,2013-04-25 02:32:00,
2013-04-24 22:42:00,48.0,43.0,29.89,West,270,3.0,4.0,84,0.00,,,0.00,,2013-04-25 02:42:00,
2013-04-24 22:52:00,48.0,43.0,29.89,West,270,3.0,4.0,84,0.00,,,0.00,,2013-04-25 02:52:00,
2013-04-24 23:02:00,48.0,44.0,29.88,SSE,158,5.0,7.0,85,0.00,,,0.00,,2013-04-25 03:02:00,
2013-04-24 23:11:00,48.0,44.0,29.89,SW,225,0.0,9.0,86,0.00,,,0.00,,2013-04-25 03:11:00,
2013-04-24 23:22:00,48.0,44.0,29.89,SW,225,0.0,9.0,86,0.00,,,0.00,,2013-04-25 03:22:00,
2013-04-24 23:33:00,48.0,44.0,29.89,SW,225,0.0,3.0,87,0.00,,,0.00,,2013-04-25 03:33:00,
2013-04-24 23:42:00,48.0,44.0,29.89,SW,225,0.0,3.0,87,0.00,,,0.00,,2013-04-25 03:42:00,
2013-04-24 23:52:00,49.0,46.0,29.88,West,270,0.0,4.0,88,0.00,,,0.00,,2013-04-25 03:52:00,